METAR UND TAF INFORMATION
EDLN 241150Z 34006KT 310V020 7000 BKN028 20/14 Q1019

 FLUGHAFENKARTE

 RUNWAY INFORMATION
Runway 13 Runway length 3937 ft Runway width 98 ft
Runway elevation 124 ft Runway displaced threshold 0 ft Runway heading 129
Runway 31 Runway length 3937 ft Runway width 98 ft
Runway elevation 125 ft Runway displaced threshold 0 ft Runway heading 309

 AIRPORT FREQUENCIES
Type GND Name GND Frequency 121.925 MHZ
Type INFO Name LANGEN INF Frequency 129.875 MHZ
Type RDR Name LANGEN RAD Frequency 133.775 MHZ
Type TWR Name TWR Frequency 120.45 MHZ

 AIRPORT NEAR NAVIGATION AIDS
Type NDB Name Monchengladbach Frequency 377 KHZ
Type DME Name Monchengladbach Frequency 112500 KHZ
Type VOR Name Monchengladbach Frequency 109800 KHZ